sensor_id;sensor_type;location;lat;lon;timestamp;P1;durP1;ratioP1;P2;durP2;ratioP2
64291;SDS011;50628;51.008;13.658;2022-12-16T00:01:41;57.37;;;33.10;;
64291;SDS011;50628;51.008;13.658;2022-12-16T00:06:43;51.90;;;31.20;;
64291;SDS011;50628;51.008;13.658;2022-12-16T00:11:46;52.53;;;29.70;;
64291;SDS011;50628;51.008;13.658;2022-12-16T00:16:48;52.47;;;30.97;;
64291;SDS011;50628;51.008;13.658;2022-12-16T00:21:50;49.97;;;29.67;;
64291;SDS011;50628;51.008;13.658;2022-12-16T00:26:53;45.73;;;26.63;;
64291;SDS011;50628;51.008;13.658;2022-12-16T00:31:55;53.50;;;32.27;;
64291;SDS011;50628;51.008;13.658;2022-12-16T00:36:57;57.03;;;34.00;;
64291;SDS011;50628;51.008;13.658;2022-12-16T00:42:00;50.93;;;29.10;;
64291;SDS011;50628;51.008;13.658;2022-12-16T00:47:02;48.53;;;29.63;;
64291;SDS011;50628;51.008;13.658;2022-12-16T00:52:04;47.03;;;28.97;;
64291;SDS011;50628;51.008;13.658;2022-12-16T00:57:07;47.03;;;27.53;;
64291;SDS011;50628;51.008;13.658;2022-12-16T01:02:09;50.57;;;28.57;;
64291;SDS011;50628;51.008;13.658;2022-12-16T01:07:11;53.33;;;32.53;;
64291;SDS011;50628;51.008;13.658;2022-12-16T01:12:14;56.80;;;33.10;;
64291;SDS011;50628;51.008;13.658;2022-12-16T01:17:16;52.50;;;30.27;;
64291;SDS011;50628;51.008;13.658;2022-12-16T01:22:18;56.87;;;33.33;;
64291;SDS011;50628;51.008;13.658;2022-12-16T01:27:22;63.97;;;35.27;;
64291;SDS011;50628;51.008;13.658;2022-12-16T01:32:24;66.97;;;41.20;;
64291;SDS011;50628;51.008;13.658;2022-12-16T01:37:25;56.73;;;34.80;;
64291;SDS011;50628;51.008;13.658;2022-12-16T01:42:29;53.77;;;30.00;;
64291;SDS011;50628;51.008;13.658;2022-12-16T01:47:32;44.20;;;25.30;;
64291;SDS011;50628;51.008;13.658;2022-12-16T01:52:35;50.43;;;27.13;;
64291;SDS011;50628;51.008;13.658;2022-12-16T01:57:44;44.47;;;25.93;;
64291;SDS011;50628;51.008;13.658;2022-12-16T02:02:48;58.50;;;33.93;;
64291;SDS011;50628;51.008;13.658;2022-12-16T02:07:53;51.60;;;31.13;;
64291;SDS011;50628;51.008;13.658;2022-12-16T02:13:02;52.57;;;28.60;;
64291;SDS011;50628;51.008;13.658;2022-12-16T02:18:15;50.37;;;29.17;;
64291;SDS011;50628;51.008;13.658;2022-12-16T02:29:30;53.23;;;29.50;;
64291;SDS011;50628;51.008;13.658;2022-12-16T02:34:47;47.43;;;26.43;;
64291;SDS011;50628;51.008;13.658;2022-12-16T02:39:58;50.70;;;27.63;;
64291;SDS011;50628;51.008;13.658;2022-12-16T02:45:02;51.97;;;33.57;;
64291;SDS011;50628;51.008;13.658;2022-12-16T02:50:14;58.47;;;34.23;;
64291;SDS011;50628;51.008;13.658;2022-12-16T02:55:19;53.40;;;29.67;;
64291;SDS011;50628;51.008;13.658;2022-12-16T03:00:23;47.00;;;26.37;;
64291;SDS011;50628;51.008;13.658;2022-12-16T03:05:28;53.07;;;29.50;;
64291;SDS011;50628;51.008;13.658;2022-12-16T03:10:34;63.53;;;33.53;;
64291;SDS011;50628;51.008;13.658;2022-12-16T03:15:39;66.20;;;36.63;;
64291;SDS011;50628;51.008;13.658;2022-12-16T03:20:44;61.33;;;34.80;;
64291;SDS011;50628;51.008;13.658;2022-12-16T03:25:52;51.87;;;31.77;;
64291;SDS011;50628;51.008;13.658;2022-12-16T03:30:58;58.10;;;32.67;;
64291;SDS011;50628;51.008;13.658;2022-12-16T03:36:08;58.83;;;34.67;;
64291;SDS011;50628;51.008;13.658;2022-12-16T03:41:13;64.63;;;35.63;;
64291;SDS011;50628;51.008;13.658;2022-12-16T03:46:17;66.13;;;37.53;;
64291;SDS011;50628;51.008;13.658;2022-12-16T03:51:20;64.57;;;38.00;;
64291;SDS011;50628;51.008;13.658;2022-12-16T03:56:22;69.97;;;40.37;;
64291;SDS011;50628;51.008;13.658;2022-12-16T04:01:24;67.43;;;40.03;;
64291;SDS011;50628;51.008;13.658;2022-12-16T04:06:27;62.87;;;40.53;;
64291;SDS011;50628;51.008;13.658;2022-12-16T04:11:29;66.50;;;41.07;;
64291;SDS011;50628;51.008;13.658;2022-12-16T04:16:48;68.40;;;40.17;;
64291;SDS011;50628;51.008;13.658;2022-12-16T04:22:11;68.00;;;38.83;;
64291;SDS011;50628;51.008;13.658;2022-12-16T04:27:47;71.53;;;38.37;;
64291;SDS011;50628;51.008;13.658;2022-12-16T04:32:50;69.50;;;37.87;;
64291;SDS011;50628;51.008;13.658;2022-12-16T04:38:12;74.57;;;41.70;;
64291;SDS011;50628;51.008;13.658;2022-12-16T04:43:31;79.10;;;39.53;;
64291;SDS011;50628;51.008;13.658;2022-12-16T04:48:53;70.77;;;38.27;;
64291;SDS011;50628;51.008;13.658;2022-12-16T04:54:13;68.23;;;39.87;;
64291;SDS011;50628;51.008;13.658;2022-12-16T04:59:32;65.30;;;36.73;;
64291;SDS011;50628;51.008;13.658;2022-12-16T05:04:51;68.53;;;36.17;;
64291;SDS011;50628;51.008;13.658;2022-12-16T05:10:27;79.83;;;35.43;;
64291;SDS011;50628;51.008;13.658;2022-12-16T05:15:46;63.13;;;34.60;;
64291;SDS011;50628;51.008;13.658;2022-12-16T05:21:05;65.73;;;36.50;;
64291;SDS011;50628;51.008;13.658;2022-12-16T05:26:26;58.03;;;33.33;;
64291;SDS011;50628;51.008;13.658;2022-12-16T05:31:46;61.37;;;33.10;;
64291;SDS011;50628;51.008;13.658;2022-12-16T05:37:05;56.83;;;32.47;;
64291;SDS011;50628;51.008;13.658;2022-12-16T05:42:26;55.47;;;28.50;;
64291;SDS011;50628;51.008;13.658;2022-12-16T05:47:46;48.57;;;26.07;;
64291;SDS011;50628;51.008;13.658;2022-12-16T05:53:05;48.67;;;27.73;;
64291;SDS011;50628;51.008;13.658;2022-12-16T05:58:26;47.27;;;27.17;;
64291;SDS011;50628;51.008;13.658;2022-12-16T06:03:47;45.53;;;26.17;;
64291;SDS011;50628;51.008;13.658;2022-12-16T06:09:06;49.60;;;25.57;;
64291;SDS011;50628;51.008;13.658;2022-12-16T06:14:27;47.73;;;25.03;;
64291;SDS011;50628;51.008;13.658;2022-12-16T06:19:47;65.60;;;33.77;;
64291;SDS011;50628;51.008;13.658;2022-12-16T06:25:06;35.80;;;21.77;;
64291;SDS011;50628;51.008;13.658;2022-12-16T06:30:27;44.53;;;24.00;;
64291;SDS011;50628;51.008;13.658;2022-12-16T06:35:46;43.50;;;22.60;;
64291;SDS011;50628;51.008;13.658;2022-12-16T06:41:06;40.73;;;23.10;;
64291;SDS011;50628;51.008;13.658;2022-12-16T06:46:27;46.00;;;25.33;;
64291;SDS011;50628;51.008;13.658;2022-12-16T06:51:46;47.97;;;25.73;;
64291;SDS011;50628;51.008;13.658;2022-12-16T06:57:06;46.03;;;25.17;;
64291;SDS011;50628;51.008;13.658;2022-12-16T07:02:27;50.67;;;26.00;;
64291;SDS011;50628;51.008;13.658;2022-12-16T07:07:51;50.37;;;28.67;;
64291;SDS011;50628;51.008;13.658;2022-12-16T07:13:11;49.97;;;26.13;;
64291;SDS011;50628;51.008;13.658;2022-12-16T07:18:31;49.83;;;26.83;;
64291;SDS011;50628;51.008;13.658;2022-12-16T07:23:51;49.87;;;26.20;;
64291;SDS011;50628;51.008;13.658;2022-12-16T07:29:10;50.23;;;26.63;;
64291;SDS011;50628;51.008;13.658;2022-12-16T07:34:31;47.67;;;27.10;;
64291;SDS011;50628;51.008;13.658;2022-12-16T07:39:51;50.73;;;28.00;;
64291;SDS011;50628;51.008;13.658;2022-12-16T07:45:10;51.77;;;28.87;;
64291;SDS011;50628;51.008;13.658;2022-12-16T07:50:36;49.27;;;27.83;;
64291;SDS011;50628;51.008;13.658;2022-12-16T07:55:56;57.47;;;30.73;;
64291;SDS011;50628;51.008;13.658;2022-12-16T08:01:16;54.27;;;27.80;;
64291;SDS011;50628;51.008;13.658;2022-12-16T08:06:37;57.10;;;28.67;;
64291;SDS011;50628;51.008;13.658;2022-12-16T08:11:57;57.67;;;31.63;;
64291;SDS011;50628;51.008;13.658;2022-12-16T08:17:27;57.50;;;33.10;;
64291;SDS011;50628;51.008;13.658;2022-12-16T08:22:48;59.40;;;32.47;;
64291;SDS011;50628;51.008;13.658;2022-12-16T08:28:08;58.47;;;33.57;;
64291;SDS011;50628;51.008;13.658;2022-12-16T08:33:27;68.97;;;37.17;;
64291;SDS011;50628;51.008;13.658;2022-12-16T08:38:48;58.13;;;33.07;;
64291;SDS011;50628;51.008;13.658;2022-12-16T08:44:08;57.30;;;33.20;;
64291;SDS011;50628;51.008;13.658;2022-12-16T08:49:27;60.63;;;33.23;;
64291;SDS011;50628;51.008;13.658;2022-12-16T08:54:48;65.97;;;36.23;;
64291;SDS011;50628;51.008;13.658;2022-12-16T09:00:07;66.10;;;36.10;;
64291;SDS011;50628;51.008;13.658;2022-12-16T09:05:26;71.30;;;37.93;;
64291;SDS011;50628;51.008;13.658;2022-12-16T09:10:58;66.63;;;36.57;;
64291;SDS011;50628;51.008;13.658;2022-12-16T09:16:18;63.03;;;34.17;;
64291;SDS011;50628;51.008;13.658;2022-12-16T09:21:37;63.30;;;35.17;;
64291;SDS011;50628;51.008;13.658;2022-12-16T09:26:58;63.27;;;34.23;;
64291;SDS011;50628;51.008;13.658;2022-12-16T09:32:17;59.57;;;33.80;;
64291;SDS011;50628;51.008;13.658;2022-12-16T09:37:37;84.17;;;42.63;;
64291;SDS011;50628;51.008;13.658;2022-12-16T09:43:04;85.07;;;39.30;;
64291;SDS011;50628;51.008;13.658;2022-12-16T09:48:33;63.50;;;35.33;;
64291;SDS011;50628;51.008;13.658;2022-12-16T09:53:58;72.33;;;36.50;;
64291;SDS011;50628;51.008;13.658;2022-12-16T09:59:22;68.87;;;34.43;;
64291;SDS011;50628;51.008;13.658;2022-12-16T10:04:46;68.97;;;34.03;;
64291;SDS011;50628;51.008;13.658;2022-12-16T10:10:15;70.67;;;35.43;;
64291;SDS011;50628;51.008;13.658;2022-12-16T10:15:42;70.27;;;36.57;;
64291;SDS011;50628;51.008;13.658;2022-12-16T10:21:07;70.03;;;37.87;;
64291;SDS011;50628;51.008;13.658;2022-12-16T10:26:35;64.80;;;34.73;;
64291;SDS011;50628;51.008;13.658;2022-12-16T10:32:12;61.53;;;34.23;;
64291;SDS011;50628;51.008;13.658;2022-12-16T10:37:37;67.53;;;36.40;;
64291;SDS011;50628;51.008;13.658;2022-12-16T10:42:58;68.57;;;36.03;;
64291;SDS011;50628;51.008;13.658;2022-12-16T10:48:24;66.83;;;36.53;;
64291;SDS011;50628;51.008;13.658;2022-12-16T10:53:44;64.80;;;35.30;;
64291;SDS011;50628;51.008;13.658;2022-12-16T10:59:07;70.67;;;40.63;;
64291;SDS011;50628;51.008;13.658;2022-12-16T11:04:29;63.87;;;34.23;;
64291;SDS011;50628;51.008;13.658;2022-12-16T11:09:50;68.10;;;37.70;;
64291;SDS011;50628;51.008;13.658;2022-12-16T11:15:25;71.10;;;37.27;;
64291;SDS011;50628;51.008;13.658;2022-12-16T11:20:47;67.63;;;37.17;;
64291;SDS011;50628;51.008;13.658;2022-12-16T11:26:23;78.97;;;43.53;;
64291;SDS011;50628;51.008;13.658;2022-12-16T11:31:42;68.03;;;37.27;;
64291;SDS011;50628;51.008;13.658;2022-12-16T11:37:03;64.77;;;36.53;;
64291;SDS011;50628;51.008;13.658;2022-12-16T11:42:36;65.03;;;37.40;;
64291;SDS011;50628;51.008;13.658;2022-12-16T11:47:57;64.60;;;36.87;;
64291;SDS011;50628;51.008;13.658;2022-12-16T11:53:28;63.70;;;36.77;;
64291;SDS011;50628;51.008;13.658;2022-12-16T11:58:49;64.57;;;37.77;;
64291;SDS011;50628;51.008;13.658;2022-12-16T12:04:13;69.07;;;36.30;;
64291;SDS011;50628;51.008;13.658;2022-12-16T12:09:35;66.23;;;36.53;;
64291;SDS011;50628;51.008;13.658;2022-12-16T12:15:01;66.33;;;36.73;;
64291;SDS011;50628;51.008;13.658;2022-12-16T12:20:38;64.10;;;36.43;;
64291;SDS011;50628;51.008;13.658;2022-12-16T12:26:12;85.40;;;49.63;;
64291;SDS011;50628;51.008;13.658;2022-12-16T12:31:36;72.40;;;40.13;;
64291;SDS011;50628;51.008;13.658;2022-12-16T12:37:03;63.17;;;36.57;;
64291;SDS011;50628;51.008;13.658;2022-12-16T12:42:28;63.73;;;35.87;;
64291;SDS011;50628;51.008;13.658;2022-12-16T12:47:57;62.20;;;35.80;;
64291;SDS011;50628;51.008;13.658;2022-12-16T12:53:27;66.63;;;36.07;;
64291;SDS011;50628;51.008;13.658;2022-12-16T12:58:59;58.03;;;34.37;;
64291;SDS011;50628;51.008;13.658;2022-12-16T13:04:24;62.83;;;36.43;;
64291;SDS011;50628;51.008;13.658;2022-12-16T13:09:45;68.87;;;36.37;;
64291;SDS011;50628;51.008;13.658;2022-12-16T13:15:45;63.87;;;36.77;;
64291;SDS011;50628;51.008;13.658;2022-12-16T13:21:29;66.63;;;37.27;;
64291;SDS011;50628;51.008;13.658;2022-12-16T13:27:10;66.63;;;36.73;;
64291;SDS011;50628;51.008;13.658;2022-12-16T13:32:32;65.80;;;35.87;;
64291;SDS011;50628;51.008;13.658;2022-12-16T13:37:51;68.90;;;38.40;;
64291;SDS011;50628;51.008;13.658;2022-12-16T13:43:17;75.20;;;40.27;;
64291;SDS011;50628;51.008;13.658;2022-12-16T13:49:36;73.90;;;39.93;;
64291;SDS011;50628;51.008;13.658;2022-12-16T13:55:02;64.87;;;36.50;;
64291;SDS011;50628;51.008;13.658;2022-12-16T14:00:38;66.10;;;36.23;;
64291;SDS011;50628;51.008;13.658;2022-12-16T14:06:00;63.50;;;35.80;;
64291;SDS011;50628;51.008;13.658;2022-12-16T14:11:25;61.70;;;35.07;;
64291;SDS011;50628;51.008;13.658;2022-12-16T14:17:18;75.20;;;38.97;;
64291;SDS011;50628;51.008;13.658;2022-12-16T14:22:46;67.03;;;37.70;;
64291;SDS011;50628;51.008;13.658;2022-12-16T14:28:17;70.30;;;39.83;;
64291;SDS011;50628;51.008;13.658;2022-12-16T14:33:42;66.53;;;37.50;;
64291;SDS011;50628;51.008;13.658;2022-12-16T14:39:01;72.27;;;37.23;;
64291;SDS011;50628;51.008;13.658;2022-12-16T14:44:22;66.90;;;37.13;;
64291;SDS011;50628;51.008;13.658;2022-12-16T14:49:49;70.20;;;37.43;;
64291;SDS011;50628;51.008;13.658;2022-12-16T14:55:12;70.90;;;37.90;;
64291;SDS011;50628;51.008;13.658;2022-12-16T15:00:33;65.93;;;38.17;;
64291;SDS011;50628;51.008;13.658;2022-12-16T15:05:55;74.37;;;38.53;;
64291;SDS011;50628;51.008;13.658;2022-12-16T15:11:16;66.80;;;38.40;;
64291;SDS011;50628;51.008;13.658;2022-12-16T15:16:40;67.17;;;36.70;;
64291;SDS011;50628;51.008;13.658;2022-12-16T15:22:03;72.97;;;41.40;;
64291;SDS011;50628;51.008;13.658;2022-12-16T15:27:23;78.53;;;40.43;;
64291;SDS011;50628;51.008;13.658;2022-12-16T15:32:50;68.30;;;39.27;;
64291;SDS011;50628;51.008;13.658;2022-12-16T15:38:14;68.37;;;36.43;;
64291;SDS011;50628;51.008;13.658;2022-12-16T15:43:51;60.47;;;34.63;;
64291;SDS011;50628;51.008;13.658;2022-12-16T15:49:15;66.90;;;36.57;;
64291;SDS011;50628;51.008;13.658;2022-12-16T15:54:51;64.17;;;35.53;;
64291;SDS011;50628;51.008;13.658;2022-12-16T16:00:17;76.93;;;41.17;;
64291;SDS011;50628;51.008;13.658;2022-12-16T16:05:39;74.93;;;41.10;;
64291;SDS011;50628;51.008;13.658;2022-12-16T16:10:59;75.10;;;38.87;;
64291;SDS011;50628;51.008;13.658;2022-12-16T16:16:19;74.47;;;38.57;;
64291;SDS011;50628;51.008;13.658;2022-12-16T16:21:38;70.40;;;38.40;;
64291;SDS011;50628;51.008;13.658;2022-12-16T16:26:59;67.20;;;37.30;;
64291;SDS011;50628;51.008;13.658;2022-12-16T16:32:25;68.53;;;37.57;;
64291;SDS011;50628;51.008;13.658;2022-12-16T16:37:44;67.07;;;37.23;;
64291;SDS011;50628;51.008;13.658;2022-12-16T16:43:05;67.90;;;38.77;;
64291;SDS011;50628;51.008;13.658;2022-12-16T16:48:25;65.67;;;36.80;;
64291;SDS011;50628;51.008;13.658;2022-12-16T16:53:46;73.67;;;38.40;;
64291;SDS011;50628;51.008;13.658;2022-12-16T16:59:08;66.80;;;36.57;;
64291;SDS011;50628;51.008;13.658;2022-12-16T17:04:29;66.60;;;35.07;;
64291;SDS011;50628;51.008;13.658;2022-12-16T17:09:49;63.83;;;35.47;;
64291;SDS011;50628;51.008;13.658;2022-12-16T17:15:13;61.67;;;35.50;;
64291;SDS011;50628;51.008;13.658;2022-12-16T17:20:34;63.27;;;37.70;;
64291;SDS011;50628;51.008;13.658;2022-12-16T17:25:53;66.87;;;38.00;;
64291;SDS011;50628;51.008;13.658;2022-12-16T17:31:14;65.33;;;38.20;;
64291;SDS011;50628;51.008;13.658;2022-12-16T17:36:33;68.20;;;36.93;;
64291;SDS011;50628;51.008;13.658;2022-12-16T17:41:52;64.00;;;37.83;;
64291;SDS011;50628;51.008;13.658;2022-12-16T17:47:14;63.40;;;36.73;;
64291;SDS011;50628;51.008;13.658;2022-12-16T17:52:33;73.07;;;38.67;;
64291;SDS011;50628;51.008;13.658;2022-12-16T17:57:53;65.63;;;36.90;;
64291;SDS011;50628;51.008;13.658;2022-12-16T18:03:13;69.70;;;40.33;;
64291;SDS011;50628;51.008;13.658;2022-12-16T18:08:32;72.63;;;37.83;;
64291;SDS011;50628;51.008;13.658;2022-12-16T18:13:51;66.70;;;38.30;;
64291;SDS011;50628;51.008;13.658;2022-12-16T18:19:13;68.53;;;40.27;;
64291;SDS011;50628;51.008;13.658;2022-12-16T18:24:33;67.40;;;37.40;;
64291;SDS011;50628;51.008;13.658;2022-12-16T18:29:52;69.03;;;38.23;;
64291;SDS011;50628;51.008;13.658;2022-12-16T18:35:13;72.43;;;42.03;;
64291;SDS011;50628;51.008;13.658;2022-12-16T18:40:33;63.03;;;37.80;;
64291;SDS011;50628;51.008;13.658;2022-12-16T18:45:52;63.73;;;36.50;;
64291;SDS011;50628;51.008;13.658;2022-12-16T18:51:15;67.53;;;38.97;;
64291;SDS011;50628;51.008;13.658;2022-12-16T18:56:35;77.03;;;41.40;;
64291;SDS011;50628;51.008;13.658;2022-12-16T19:01:54;61.93;;;36.60;;
64291;SDS011;50628;51.008;13.658;2022-12-16T19:07:16;70.47;;;38.50;;
64291;SDS011;50628;51.008;13.658;2022-12-16T19:12:35;71.13;;;37.73;;
64291;SDS011;50628;51.008;13.658;2022-12-16T19:17:57;60.83;;;34.40;;
64291;SDS011;50628;51.008;13.658;2022-12-16T19:23:19;69.03;;;37.37;;
64291;SDS011;50628;51.008;13.658;2022-12-16T19:28:39;60.83;;;35.33;;
64291;SDS011;50628;51.008;13.658;2022-12-16T19:34:03;58.60;;;36.60;;
64291;SDS011;50628;51.008;13.658;2022-12-16T19:39:24;63.93;;;38.17;;
64291;SDS011;50628;51.008;13.658;2022-12-16T19:44:44;65.67;;;37.63;;
64291;SDS011;50628;51.008;13.658;2022-12-16T19:50:03;61.40;;;36.23;;
64291;SDS011;50628;51.008;13.658;2022-12-16T19:55:24;57.27;;;34.17;;
64291;SDS011;50628;51.008;13.658;2022-12-16T20:00:44;62.07;;;36.00;;
64291;SDS011;50628;51.008;13.658;2022-12-16T20:06:04;59.80;;;33.83;;
64291;SDS011;50628;51.008;13.658;2022-12-16T20:11:27;63.70;;;36.40;;
64291;SDS011;50628;51.008;13.658;2022-12-16T20:16:46;70.60;;;37.70;;
64291;SDS011;50628;51.008;13.658;2022-12-16T20:22:06;63.67;;;36.67;;
64291;SDS011;50628;51.008;13.658;2022-12-16T20:27:26;58.00;;;35.00;;
64291;SDS011;50628;51.008;13.658;2022-12-16T20:32:46;59.33;;;36.43;;
64291;SDS011;50628;51.008;13.658;2022-12-16T20:38:06;58.17;;;35.63;;
64291;SDS011;50628;51.008;13.658;2022-12-16T20:43:27;68.87;;;37.27;;
64291;SDS011;50628;51.008;13.658;2022-12-16T20:48:46;64.43;;;36.70;;
64291;SDS011;50628;51.008;13.658;2022-12-16T20:54:11;64.00;;;36.33;;
64291;SDS011;50628;51.008;13.658;2022-12-16T20:59:31;63.17;;;36.07;;
64291;SDS011;50628;51.008;13.658;2022-12-16T21:04:50;67.20;;;36.00;;
64291;SDS011;50628;51.008;13.658;2022-12-16T21:10:15;65.37;;;36.77;;
64291;SDS011;50628;51.008;13.658;2022-12-16T21:15:37;63.17;;;35.13;;
64291;SDS011;50628;51.008;13.658;2022-12-16T21:20:56;58.07;;;33.93;;
64291;SDS011;50628;51.008;13.658;2022-12-16T21:26:15;59.97;;;33.27;;
64291;SDS011;50628;51.008;13.658;2022-12-16T21:31:36;65.30;;;37.47;;
64291;SDS011;50628;51.008;13.658;2022-12-16T21:36:55;52.40;;;34.03;;
64291;SDS011;50628;51.008;13.658;2022-12-16T21:42:14;59.67;;;34.20;;
64291;SDS011;50628;51.008;13.658;2022-12-16T21:47:35;65.37;;;36.20;;
64291;SDS011;50628;51.008;13.658;2022-12-16T21:52:54;57.03;;;33.00;;
64291;SDS011;50628;51.008;13.658;2022-12-16T21:58:13;60.73;;;34.60;;
64291;SDS011;50628;51.008;13.658;2022-12-16T22:03:34;58.00;;;33.07;;
64291;SDS011;50628;51.008;13.658;2022-12-16T22:08:54;59.60;;;35.43;;
64291;SDS011;50628;51.008;13.658;2022-12-16T22:14:13;59.43;;;35.17;;
64291;SDS011;50628;51.008;13.658;2022-12-16T22:19:34;62.03;;;32.87;;
64291;SDS011;50628;51.008;13.658;2022-12-16T22:24:53;53.80;;;32.47;;
64291;SDS011;50628;51.008;13.658;2022-12-16T22:30:12;53.57;;;33.80;;
64291;SDS011;50628;51.008;13.658;2022-12-16T22:35:33;52.50;;;32.53;;
64291;SDS011;50628;51.008;13.658;2022-12-16T22:40:52;56.07;;;33.03;;
64291;SDS011;50628;51.008;13.658;2022-12-16T22:46:13;55.83;;;33.33;;
64291;SDS011;50628;51.008;13.658;2022-12-16T22:51:34;56.43;;;33.23;;
64291;SDS011;50628;51.008;13.658;2022-12-16T22:56:53;59.40;;;31.80;;
64291;SDS011;50628;51.008;13.658;2022-12-16T23:02:13;58.70;;;34.53;;
64291;SDS011;50628;51.008;13.658;2022-12-16T23:07:35;57.27;;;34.53;;
64291;SDS011;50628;51.008;13.658;2022-12-16T23:12:55;56.20;;;33.97;;
64291;SDS011;50628;51.008;13.658;2022-12-16T23:18:14;58.80;;;32.90;;
64291;SDS011;50628;51.008;13.658;2022-12-16T23:23:35;53.50;;;31.33;;
64291;SDS011;50628;51.008;13.658;2022-12-16T23:28:55;58.50;;;34.00;;
64291;SDS011;50628;51.008;13.658;2022-12-16T23:34:14;58.87;;;31.47;;
64291;SDS011;50628;51.008;13.658;2022-12-16T23:39:34;56.53;;;33.87;;
64291;SDS011;50628;51.008;13.658;2022-12-16T23:44:53;54.40;;;32.10;;
64291;SDS011;50628;51.008;13.658;2022-12-16T23:50:12;53.43;;;32.37;;
64291;SDS011;50628;51.008;13.658;2022-12-16T23:55:33;51.87;;;31.50;;
